createdAt,value
2019-05-30T00:00:16.010Z,63.92
2019-05-30T00:02:39.840Z,64.26
2019-05-30T00:05:13.283Z,64.38
2019-05-30T00:07:45.283Z,63.64
2019-05-30T00:10:19.640Z,63.30
2019-05-30T00:12:51.795Z,63.60
2019-05-30T00:15:24.270Z,63.30
2019-05-30T00:17:56.716Z,63.24
2019-05-30T00:20:29.138Z,63.51
2019-05-30T00:23:01.538Z,63.76
2019-05-30T00:25:33.846Z,64.05
2019-05-30T00:28:06.179Z,64.23
2019-05-30T00:30:38.635Z,64.38
2019-05-30T00:33:10.989Z,64.31
2019-05-30T00:35:46.536Z,64.35
2019-05-30T00:38:20.344Z,64.14
2019-05-30T00:40:52.717Z,64.09
2019-05-30T00:43:24.805Z,64.37
2019-05-30T00:45:57.945Z,64.75
2019-05-30T00:48:30.450Z,64.69
2019-05-30T00:51:04.650Z,64.70
2019-05-30T00:53:36.158Z,64.80
2019-05-30T00:56:07.984Z,64.97
2019-05-30T00:58:40.148Z,65.05
2019-05-30T01:01:12.989Z,64.78
2019-05-30T01:03:45.076Z,64.97
2019-05-30T01:06:17.456Z,65.50
2019-05-30T01:08:49.647Z,65.51
2019-05-30T01:11:22.000Z,66.04
2019-05-30T01:13:54.299Z,66.00
2019-05-30T01:16:26.466Z,65.99
2019-05-30T01:18:59.073Z,66.29
2019-05-30T01:21:31.234Z,66.37
2019-05-30T01:24:03.613Z,66.71
2019-05-30T01:26:36.138Z,67.01
2019-05-30T01:29:08.483Z,67.31
2019-05-30T01:31:40.603Z,67.48
2019-05-30T01:34:13.997Z,67.73
2019-05-30T01:36:46.272Z,67.92
2019-05-30T01:39:18.786Z,67.78
2019-05-30T01:41:51.323Z,68.01
2019-05-30T01:44:24.623Z,68.20
2019-05-30T01:46:58.083Z,68.20
2019-05-30T01:49:30.600Z,68.35
2019-05-30T01:52:04.524Z,68.42
2019-05-30T01:54:36.780Z,68.90
2019-05-30T01:57:09.394Z,68.65
2019-05-30T01:59:41.762Z,68.55
2019-05-30T02:02:14.105Z,68.53
2019-05-30T02:04:46.787Z,69.02
2019-05-30T02:07:19.165Z,69.11
2019-05-30T02:09:51.528Z,69.80
2019-05-30T02:12:23.706Z,69.60
2019-05-30T02:14:55.882Z,69.79
2019-05-30T02:17:28.213Z,69.56
2019-05-30T02:20:01.845Z,69.51
2019-05-30T02:22:34.242Z,69.45
2019-05-30T02:25:10.232Z,69.40
2019-05-30T02:27:42.676Z,69.62
2019-05-30T02:30:15.342Z,69.16
2019-05-30T02:32:48.012Z,69.12
2019-05-30T02:35:20.533Z,68.68
2019-05-30T02:37:52.693Z,68.60
2019-05-30T02:40:25.396Z,68.22
2019-05-30T02:43:01.262Z,68.03
2019-05-30T02:45:34.046Z,68.10
2019-05-30T02:48:07.518Z,67.94
2019-05-30T02:50:40.682Z,67.78
2019-05-30T02:53:14.385Z,67.47
2019-05-30T02:55:46.881Z,67.33
2019-05-30T02:58:19.342Z,66.86
2019-05-30T03:00:51.934Z,66.78
2019-05-30T03:03:24.571Z,66.39
2019-05-30T03:05:56.895Z,66.55
2019-05-30T03:08:31.182Z,66.53
2019-05-30T03:11:07.078Z,66.12
2019-05-30T03:13:38.111Z,66.13
2019-05-30T03:16:11.839Z,65.86
2019-05-30T03:18:45.146Z,65.61
2019-05-30T03:21:17.668Z,65.64
2019-05-30T03:23:50.227Z,65.22
2019-05-30T03:26:22.303Z,64.95
2019-05-30T03:28:55.807Z,65.16
2019-05-30T03:31:30.610Z,65.39
2019-05-30T03:34:08.234Z,65.93
2019-05-30T03:36:36.746Z,65.70
2019-05-30T03:39:10.848Z,65.77
2019-05-30T03:41:42.293Z,65.39
2019-05-30T03:44:15.592Z,64.89
2019-05-30T03:46:49.108Z,64.37
2019-05-30T03:49:24.070Z,64.04
2019-05-30T03:51:58.406Z,63.50
2019-05-30T03:54:33.234Z,63.30
2019-05-30T03:57:09.116Z,63.43
2019-05-30T04:00:02.884Z,63.30
2019-05-30T04:02:57.581Z,62.75
2019-05-30T04:05:43.888Z,62.29
2019-05-30T04:08:19.694Z,62.36
2019-05-30T04:10:55.510Z,61.78
2019-05-30T04:13:51.287Z,61.30
2019-05-30T04:16:23.619Z,61.08
2019-05-30T04:18:56.709Z,60.63
2019-05-30T04:21:29.220Z,60.58
2019-05-30T04:24:04.261Z,60.08
2019-05-30T04:26:37.768Z,59.80
2019-05-30T04:29:12.039Z,59.34
2019-05-30T04:31:44.804Z,59.09
2019-05-30T04:34:19.442Z,59.14
2019-05-30T04:36:53.369Z,59.00
2019-05-30T04:39:25.373Z,58.67
2019-05-30T04:41:58.666Z,58.40
2019-05-30T04:44:31.967Z,58.31
2019-05-30T04:47:04.384Z,57.60
2019-05-30T04:49:36.808Z,56.40
2019-05-30T04:52:14.263Z,55.64
2019-05-30T04:54:47.230Z,55.15
2019-05-30T04:57:25.688Z,55.04
2019-05-30T04:59:55.812Z,54.93
2019-05-30T05:02:28.346Z,54.22
2019-05-30T05:05:00.868Z,54.08
2019-05-30T05:07:34.354Z,53.76
2019-05-30T05:10:09.144Z,53.56
2019-05-30T05:12:41.417Z,53.24
2019-05-30T05:15:14.332Z,53.12
2019-05-30T05:17:46.558Z,52.98
2019-05-30T05:20:19.608Z,52.40
2019-05-30T05:22:51.934Z,52.39
2019-05-30T05:25:25.635Z,52.29
2019-05-30T05:27:58.827Z,51.30
2019-05-30T05:30:31.208Z,52.00
2019-05-30T05:33:03.288Z,51.23
2019-05-30T05:35:36.200Z,50.30
2019-05-30T05:38:08.774Z,51.37
2019-05-30T05:40:41.159Z,50.89
2019-05-30T05:43:13.670Z,50.66
2019-05-30T05:45:45.831Z,50.08
2019-05-30T05:48:18.352Z,49.68
2019-05-30T05:50:50.641Z,50.39
2019-05-30T05:53:23.097Z,50.37
2019-05-30T05:55:57.760Z,50.03
2019-05-30T05:58:30.753Z,48.98
2019-05-30T06:01:03.255Z,48.89
2019-05-30T06:03:35.831Z,48.88
2019-05-30T06:06:08.035Z,48.65
2019-05-30T06:08:40.089Z,48.83
2019-05-30T06:11:13.196Z,48.51
2019-05-30T06:13:45.699Z,48.15
2019-05-30T06:16:19.667Z,48.52
2019-05-30T06:18:51.275Z,48.45
2019-05-30T06:21:23.535Z,48.66
2019-05-30T06:23:56.324Z,49.08
2019-05-30T06:26:28.643Z,48.83
2019-05-30T06:29:01.127Z,47.69
2019-05-30T06:31:33.330Z,47.81
2019-05-30T06:34:05.847Z,47.73
2019-05-30T06:36:38.040Z,47.30
2019-05-30T06:39:10.816Z,47.41
2019-05-30T06:41:43.152Z,47.22
2019-05-30T06:44:15.570Z,47.16
2019-05-30T06:46:47.816Z,47.46
2019-05-30T06:49:20.661Z,47.53
2019-05-30T06:51:53.002Z,46.69
2019-05-30T06:54:25.978Z,46.70
2019-05-30T06:57:01.272Z,46.65
2019-05-30T06:59:33.802Z,46.83
2019-05-30T07:02:06.534Z,47.27
2019-05-30T07:04:50.942Z,46.75
2019-05-30T07:07:15.248Z,45.69
2019-05-30T07:09:48.635Z,45.44
2019-05-30T07:12:20.930Z,45.24
2019-05-30T07:14:53.647Z,45.24
2019-05-30T07:17:27.445Z,45.20
2019-05-30T07:19:59.764Z,45.74
2019-05-30T07:22:32.001Z,45.15
2019-05-30T07:25:05.840Z,45.16
2019-05-30T07:27:37.781Z,44.24
2019-05-30T07:30:10.468Z,43.39
2019-05-30T07:32:43.816Z,44.19
2019-05-30T07:35:16.277Z,43.40
2019-05-30T07:37:48.547Z,43.40
2019-05-30T07:40:22.044Z,44.86
2019-05-30T07:42:54.366Z,44.86
2019-05-30T07:45:29.016Z,45.14
2019-05-30T07:48:01.188Z,44.88
2019-05-30T07:50:34.545Z,45.20
2019-05-30T07:53:11.809Z,44.43
2019-05-30T07:55:45.933Z,43.50
2019-05-30T07:58:22.083Z,44.90
2019-05-30T08:00:54.813Z,44.13
2019-05-30T08:03:28.381Z,42.61
2019-05-30T08:06:00.930Z,43.13
2019-05-30T08:08:33.958Z,42.75
2019-05-30T08:11:09.811Z,42.75
2019-05-30T08:13:39.411Z,43.98
2019-05-30T08:16:11.810Z,42.50
2019-05-30T08:18:45.111Z,42.50
2019-05-30T08:21:17.339Z,42.58
2019-05-30T08:23:49.995Z,41.87
2019-05-30T08:26:22.384Z,42.43
2019-05-30T08:28:54.706Z,42.51
2019-05-30T08:31:28.483Z,42.82
2019-05-30T08:34:00.978Z,41.89
2019-05-30T08:36:33.192Z,41.89
2019-05-30T08:39:08.792Z,41.37
2019-05-30T08:41:41.029Z,40.53
2019-05-30T08:44:13.194Z,40.49
2019-05-30T08:46:45.264Z,40.60
2019-05-30T08:49:17.260Z,40.25
2019-05-30T08:51:49.412Z,37.41
2019-05-30T08:54:21.517Z,36.52
2019-05-30T08:56:54.826Z,37.78
2019-05-30T08:59:28.865Z,37.84
2019-05-30T09:02:03.757Z,35.20
2019-05-30T09:04:35.936Z,36.28
2019-05-30T09:07:09.296Z,34.96
2019-05-30T09:09:44.369Z,34.95
2019-05-30T09:12:16.886Z,33.93
2019-05-30T09:14:49.421Z,33.82
2019-05-30T09:17:22.245Z,34.83
2019-05-30T09:19:55.085Z,35.11
2019-05-30T09:22:27.303Z,35.36
2019-05-30T09:24:59.971Z,35.39
2019-05-30T09:27:33.204Z,34.65
2019-05-30T09:30:10.245Z,35.56
2019-05-30T09:32:45.162Z,35.99
2019-05-30T09:35:19.817Z,36.92
2019-05-30T09:37:53.745Z,37.14
2019-05-30T09:40:28.372Z,37.04
2019-05-30T09:43:01.067Z,36.32
2019-05-30T09:45:33.924Z,34.64
2019-05-30T09:48:07.517Z,34.59
2019-05-30T09:50:42.009Z,34.44
2019-05-30T09:53:14.127Z,33.86
2019-05-30T09:55:48.271Z,34.02
2019-05-30T09:58:20.603Z,34.65
2019-05-30T10:00:54.564Z,34.36
2019-05-30T10:03:26.988Z,35.29
2019-05-30T10:05:59.414Z,35.50
2019-05-30T10:08:31.659Z,35.59
2019-05-30T10:11:03.912Z,37.71
2019-05-30T10:13:36.473Z,35.72
2019-05-30T10:16:11.028Z,34.53
2019-05-30T10:18:42.781Z,35.92
2019-05-30T10:21:15.299Z,34.49
2019-05-30T10:23:52.432Z,34.66
2019-05-30T10:26:24.702Z,34.16
2019-05-30T10:28:59.118Z,33.23
2019-05-30T10:31:31.711Z,33.03
2019-05-30T10:34:03.979Z,31.95
2019-05-30T10:36:44.188Z,30.65
2019-05-30T10:39:10.319Z,30.18
2019-05-30T10:41:42.421Z,29.12
2019-05-30T10:44:15.563Z,28.69
2019-05-30T10:46:48.977Z,28.19
2019-05-30T10:49:34.118Z,28.85
2019-05-30T10:51:59.117Z,28.16
2019-05-30T10:54:29.779Z,29.44
2019-05-30T10:57:02.235Z,29.29
2019-05-30T10:59:34.463Z,31.52
2019-05-30T11:02:08.228Z,31.21
2019-05-30T11:04:40.361Z,31.70
2019-05-30T11:07:36.667Z,30.93
2019-05-30T11:10:14.568Z,29.06
2019-05-30T11:12:48.059Z,28.17
2019-05-30T11:15:24.863Z,26.60
2019-05-30T11:17:58.170Z,25.80
2019-05-30T11:20:30.505Z,26.76
2019-05-30T11:23:02.988Z,28.21
2019-05-30T11:25:35.668Z,29.13
2019-05-30T11:28:08.332Z,28.48
2019-05-30T11:30:40.668Z,30.87
2019-05-30T11:33:14.396Z,30.80
2019-05-30T11:35:51.139Z,30.55
2019-05-30T11:38:24.815Z,30.96
2019-05-30T11:40:57.629Z,29.45
2019-05-30T11:43:31.323Z,27.28
2019-05-30T11:46:03.662Z,26.28
2019-05-30T11:48:35.811Z,24.73
2019-05-30T11:51:08.206Z,25.99
2019-05-30T11:53:41.543Z,26.43
2019-05-30T11:56:13.093Z,27.16
2019-05-30T11:58:45.979Z,27.37
2019-05-30T12:01:18.348Z,27.94
2019-05-30T12:03:52.600Z,27.79
2019-05-30T12:06:24.925Z,27.75
2019-05-30T12:08:57.244Z,29.24
2019-05-30T12:11:34.795Z,29.16
2019-05-30T12:14:13.091Z,29.73
2019-05-30T12:16:46.178Z,30.31
2019-05-30T12:19:18.424Z,29.29
2019-05-30T12:21:51.577Z,29.45
2019-05-30T12:24:24.728Z,30.51
2019-05-30T12:26:58.161Z,32.01
2019-05-30T12:29:30.501Z,31.95
2019-05-30T12:32:03.740Z,32.94
2019-05-30T12:34:37.142Z,32.31
2019-05-30T12:37:09.345Z,29.77
2019-05-30T12:39:41.548Z,27.85
2019-05-30T12:42:13.858Z,27.29
2019-05-30T12:44:47.235Z,26.68
2019-05-30T12:47:20.596Z,28.93
2019-05-30T12:49:53.634Z,30.00
2019-05-30T12:52:26.109Z,31.54
2019-05-30T12:55:00.898Z,32.49
2019-05-30T12:57:33.387Z,32.75
2019-05-30T13:00:17.351Z,32.78
2019-05-30T13:02:46.738Z,33.22
2019-05-30T13:05:21.327Z,33.12
2019-05-30T13:08:08.062Z,34.34
2019-05-30T13:10:28.194Z,35.10
2019-05-30T13:13:01.827Z,35.54
2019-05-30T13:15:34.063Z,35.25
2019-05-30T13:18:07.195Z,34.30
2019-05-30T13:20:39.790Z,30.96
2019-05-30T13:23:13.405Z,30.72
2019-05-30T13:25:45.037Z,30.91
2019-05-30T13:28:18.651Z,31.77
2019-05-30T13:30:51.132Z,33.77
2019-05-30T13:33:25.784Z,34.26
2019-05-30T13:35:58.889Z,34.76
2019-05-30T13:38:33.289Z,36.08
2019-05-30T13:41:05.679Z,35.97
2019-05-30T13:43:39.986Z,35.46
2019-05-30T13:46:12.290Z,35.38
2019-05-30T13:48:47.100Z,34.35
2019-05-30T13:51:19.408Z,30.06
2019-05-30T13:53:54.904Z,29.14
2019-05-30T13:56:26.943Z,29.04
2019-05-30T13:58:59.654Z,28.63
2019-05-30T14:01:33.491Z,30.17
2019-05-30T14:04:06.723Z,32.51
2019-05-30T14:06:41.689Z,36.40
2019-05-30T14:09:13.905Z,36.53
2019-05-30T14:11:46.051Z,37.67
2019-05-30T14:14:19.839Z,38.39
2019-05-30T14:16:52.601Z,38.24
2019-05-30T14:19:26.342Z,39.57
2019-05-30T14:22:03.387Z,40.07
2019-05-30T14:24:36.091Z,40.28
2019-05-30T14:27:09.620Z,40.71
2019-05-30T14:29:42.146Z,40.20
2019-05-30T14:32:14.604Z,41.39
2019-05-30T14:34:47.252Z,40.44
2019-05-30T14:37:19.935Z,42.78
2019-05-30T14:39:52.143Z,41.32
2019-05-30T14:42:24.246Z,40.46
2019-05-30T14:44:56.431Z,41.59
2019-05-30T14:47:29.091Z,41.95
2019-05-30T14:50:02.275Z,44.39
2019-05-30T14:52:34.663Z,43.42
2019-05-30T14:55:09.065Z,42.66
2019-05-30T14:57:41.467Z,42.61
2019-05-30T15:00:17.716Z,41.95
2019-05-30T15:02:50.142Z,39.83
2019-05-30T15:05:22.221Z,39.83
2019-05-30T15:07:56.373Z,40.62
2019-05-30T15:10:28.676Z,38.28
2019-05-30T15:13:00.821Z,37.80
2019-05-30T15:15:33.998Z,37.80
2019-05-30T15:18:07.207Z,36.65
2019-05-30T15:20:39.420Z,36.64
2019-05-30T15:23:13.707Z,36.83
2019-05-30T15:25:46.166Z,37.50
2019-05-30T15:28:18.543Z,37.33
2019-05-30T15:30:51.038Z,37.69
2019-05-30T15:33:23.596Z,39.49
2019-05-30T15:35:55.845Z,39.05
2019-05-30T15:38:28.005Z,38.31
2019-05-30T15:41:00.248Z,38.57
2019-05-30T15:43:32.884Z,39.60
2019-05-30T15:46:05.258Z,39.60
2019-05-30T15:48:37.485Z,38.61
2019-05-30T15:51:10.434Z,38.88
2019-05-30T15:53:43.296Z,38.88
2019-05-30T15:56:17.325Z,40.14
2019-05-30T15:58:49.744Z,39.06
2019-05-30T16:01:23.295Z,38.60
2019-05-30T16:03:55.612Z,39.25
2019-05-30T16:06:28.028Z,38.97
2019-05-30T16:09:02.378Z,39.40
2019-05-30T16:11:36.433Z,39.40
2019-05-30T16:14:09.255Z,41.27
2019-05-30T16:16:41.736Z,40.85
2019-05-30T16:19:20.160Z,40.93
2019-05-30T16:21:47.113Z,40.91
2019-05-30T16:24:21.432Z,41.16
2019-05-30T16:26:53.888Z,41.57
2019-05-30T16:29:26.083Z,41.80
2019-05-30T16:31:58.329Z,42.43
2019-05-30T16:34:32.773Z,42.69
2019-05-30T16:37:04.809Z,42.69
2019-05-30T16:39:37.674Z,42.90
2019-05-30T16:42:10.076Z,43.58
2019-05-30T16:44:42.610Z,43.67
2019-05-30T16:47:14.932Z,44.03
2019-05-30T16:49:48.519Z,44.16
2019-05-30T16:52:21.024Z,44.24
2019-05-30T16:54:53.042Z,44.42
2019-05-30T16:57:25.391Z,44.39
2019-05-30T16:59:58.016Z,44.61
2019-05-30T17:02:31.258Z,45.26
2019-05-30T17:05:05.103Z,45.58
2019-05-30T17:07:37.824Z,45.74
2019-05-30T17:10:23.527Z,45.61
2019-05-30T17:12:50.996Z,45.60
2019-05-30T17:15:24.142Z,45.37
2019-05-30T17:17:56.713Z,43.87
2019-05-30T17:20:29.354Z,43.88
2019-05-30T17:23:01.786Z,44.75
2019-05-30T17:25:34.302Z,45.55
2019-05-30T17:28:06.928Z,46.20
2019-05-30T17:30:39.981Z,46.70
2019-05-30T17:33:12.211Z,46.11
2019-05-30T17:35:46.555Z,46.69
2019-05-30T17:38:18.982Z,47.10
2019-05-30T17:40:51.313Z,48.06
2019-05-30T17:43:25.048Z,48.35
2019-05-30T17:45:59.460Z,48.42
2019-05-30T17:48:31.945Z,48.63
2019-05-30T17:51:05.256Z,49.54
2019-05-30T17:53:37.924Z,49.89
2019-05-30T17:56:11.851Z,50.45
2019-05-30T17:58:49.928Z,50.92
2019-05-30T18:01:22.533Z,50.73
2019-05-30T18:03:55.115Z,51.68
2019-05-30T18:06:28.644Z,51.64
2019-05-30T18:09:01.350Z,50.27
2019-05-30T18:11:37.498Z,49.74
2019-05-30T18:14:11.323Z,51.07
2019-05-30T18:16:44.314Z,52.65
2019-05-30T18:19:21.089Z,54.81
2019-05-30T18:21:53.715Z,55.39
2019-05-30T18:24:27.757Z,56.17
2019-05-30T18:27:00.405Z,57.03
2019-05-30T18:29:33.391Z,58.04
2019-05-30T18:32:05.771Z,58.40
2019-05-30T18:34:40.526Z,58.76
2019-05-30T18:37:15.359Z,59.16
2019-05-30T18:39:47.891Z,59.40
2019-05-30T18:42:22.973Z,59.61
2019-05-30T18:44:58.786Z,60.24
2019-05-30T18:47:31.484Z,60.74
2019-05-30T18:50:04.570Z,60.85
2019-05-30T18:52:37.146Z,61.46
2019-05-30T18:55:11.022Z,60.38
2019-05-30T18:57:43.397Z,60.49
2019-05-30T19:00:17.619Z,59.68
2019-05-30T19:02:50.346Z,59.41
2019-05-30T19:05:24.411Z,60.04
2019-05-30T19:07:57.950Z,60.42
2019-05-30T19:10:32.437Z,60.89
2019-05-30T19:13:07.239Z,61.10
2019-05-30T19:15:40.902Z,60.82
2019-05-30T19:18:13.492Z,61.63
2019-05-30T19:20:46.033Z,61.50
2019-05-30T19:23:18.942Z,61.83
2019-05-30T19:25:51.714Z,61.62
2019-05-30T19:28:24.553Z,62.08
2019-05-30T19:30:58.211Z,62.84
2019-05-30T19:33:30.888Z,62.92
2019-05-30T19:36:03.236Z,63.46
2019-05-30T19:38:35.821Z,63.10
2019-05-30T19:41:08.172Z,63.47
2019-05-30T19:43:40.575Z,63.47
2019-05-30T19:46:13.430Z,63.64
2019-05-30T19:48:47.771Z,63.58
2019-05-30T19:51:21.038Z,63.97
2019-05-30T19:53:53.300Z,63.26
2019-05-30T19:56:25.913Z,62.63
2019-05-30T19:58:58.533Z,62.43
2019-05-30T20:01:31.722Z,62.97
2019-05-30T20:04:04.758Z,62.96
2019-05-30T20:06:37.191Z,62.92
2019-05-30T20:09:09.869Z,63.07
2019-05-30T20:11:42.282Z,63.57
2019-05-30T20:14:18.237Z,63.24
2019-05-30T20:16:51.064Z,62.51
2019-05-30T20:19:24.336Z,62.61
2019-05-30T20:21:56.759Z,63.12
2019-05-30T20:24:29.392Z,63.04
2019-05-30T20:27:02.824Z,63.21
2019-05-30T20:29:35.297Z,63.73
2019-05-30T20:32:08.022Z,63.83
2019-05-30T20:34:40.965Z,64.72
2019-05-30T20:37:14.274Z,64.97
2019-05-30T20:39:47.277Z,65.26
2019-05-30T20:42:19.986Z,65.29
2019-05-30T20:44:52.784Z,65.34
2019-05-30T20:47:25.624Z,66.22
2019-05-30T20:49:57.879Z,66.90
2019-05-30T20:52:30.728Z,67.24
2019-05-30T20:55:03.452Z,67.58
2019-05-30T20:57:38.390Z,67.71
2019-05-30T21:00:12.457Z,67.42
2019-05-30T21:02:47.056Z,67.43
2019-05-30T21:05:19.633Z,66.55
2019-05-30T21:07:53.917Z,65.28
2019-05-30T21:10:26.368Z,65.22
2019-05-30T21:13:00.507Z,64.47
2019-05-30T21:15:35.299Z,65.01
2019-05-30T21:18:07.549Z,64.98
2019-05-30T21:20:40.092Z,65.03
2019-05-30T21:23:12.678Z,65.39
2019-05-30T21:25:45.550Z,65.26
2019-05-30T21:28:18.011Z,64.95
2019-05-30T21:30:50.755Z,65.42
2019-05-30T21:33:24.370Z,65.52
2019-05-30T21:35:57.082Z,65.62
2019-05-30T21:38:29.754Z,65.50
2019-05-30T21:41:02.467Z,65.77
2019-05-30T21:43:35.399Z,66.00
2019-05-30T21:46:07.643Z,66.17
2019-05-30T21:48:41.253Z,66.43
2019-05-30T21:51:14.746Z,67.43
2019-05-30T21:53:47.741Z,68.21
2019-05-30T21:56:20.425Z,68.39
2019-05-30T21:58:53.036Z,68.72
2019-05-30T22:01:29.005Z,69.03
2019-05-30T22:04:02.143Z,69.20
2019-05-30T22:06:34.754Z,68.69
2019-05-30T22:09:08.734Z,68.35
2019-05-30T22:11:41.703Z,67.72
2019-05-30T22:14:14.371Z,67.55
2019-05-30T22:16:50.133Z,66.50
2019-05-30T22:19:23.063Z,64.64
2019-05-30T22:21:55.521Z,64.36
2019-05-30T22:24:28.286Z,64.52
2019-05-30T22:27:00.566Z,65.97
2019-05-30T22:29:33.312Z,66.44
2019-05-30T22:32:06.826Z,67.19
2019-05-30T22:34:39.341Z,67.34
2019-05-30T22:37:11.929Z,68.05
2019-05-30T22:39:44.873Z,68.71
2019-05-30T22:42:17.657Z,68.43
2019-05-30T22:44:50.554Z,68.60
2019-05-30T22:47:23.061Z,68.72
2019-05-30T22:49:56.941Z,69.12
2019-05-30T22:52:30.427Z,69.47
2019-05-30T22:55:06.446Z,69.53
2019-05-30T22:57:38.685Z,70.25
2019-05-30T23:00:11.826Z,70.17
2019-05-30T23:02:44.092Z,70.41
2019-05-30T23:05:16.492Z,71.23
2019-05-30T23:07:49.403Z,71.74
2019-05-30T23:10:22.777Z,72.14
2019-05-30T23:12:56.049Z,72.94
2019-05-30T23:15:28.441Z,72.87
2019-05-30T23:18:02.564Z,73.37
2019-05-30T23:20:34.951Z,73.83
2019-05-30T23:23:07.217Z,74.12
2019-05-30T23:25:39.476Z,74.14
2019-05-30T23:28:12.041Z,74.98
2019-05-30T23:30:44.420Z,75.62
2019-05-30T23:33:16.899Z,76.38
2019-05-30T23:35:50.272Z,76.92
2019-05-30T23:38:22.758Z,75.61
2019-05-30T23:40:55.337Z,75.39
2019-05-30T23:43:27.605Z,75.01
2019-05-30T23:45:59.948Z,75.75
2019-05-30T23:48:32.375Z,74.45
2019-05-30T23:51:04.851Z,73.62
2019-05-30T23:53:38.233Z,73.26
2019-05-30T23:56:10.656Z,74.08
2019-05-30T23:58:42.910Z,74.57
